»·PEaware :: N3141P KPSP-KAVX

N3141P :: KPSP-KAVX

FLIGHT INFORMATION

Flight Status: Arrived
Operator: Privately registered:
United States
More flights under this callsign
Pilot: Andrew N. (12823)
Aircraft: Unknown
(PIPA)
More flights by this aircraft type
Origin: KPSP Palm Springs Intl
United States
Destination: KAVX Catalina
United States
More flights between these airports :: More routes between these airports
Route: +CATH1 PSP V388 PDZ V370 PRADO V363 POXKU V21 SXC
File this flight plan on PilotEdge
Remarks:
Altitude:
(Current/Filed)
10,000ft
Speed:
(Current/Filed)
200kts
Departed: 09-Oct-17 07:26 AM
Arrived: 09-Oct-17 08:08 AM
Distance/Time
Traveled:
99nm/0:42
Distance/Time
To Go:
Arrived

Flight Plot

Page will automatically refresh every two minutes.

Flight plan parsing failed; only flown route is shown


Map Options




Map Legend


Flown Route
Filed Route
Departure Airport
Arrival Airport
Navaid (VOR, NDB)
Fix

Horizontal Profiles

Position Reports

Time Latitude Longitude Heading Altitude Ground
Speed
09-Oct-17 07:20 33.823057 -116.497313 52 426ft 0kts
09-Oct-17 07:21 33.823057 -116.497313 52 426ft 0kts
09-Oct-17 07:22 33.823057 -116.497313 52 426ft 0kts
09-Oct-17 07:23 33.823057 -116.497313 52 426ft 0kts
09-Oct-17 07:24 33.823057 -116.497313 52 426ft 0kts
09-Oct-17 07:25 33.823057 -116.497313 52 426ft 0kts
09-Oct-17 07:26 33.822970 -116.497486 82 426ft 1kts
09-Oct-17 07:27 33.823009 -116.497644 144 426ft 2kts
09-Oct-17 07:28 33.823447 -116.498090 318 426ft 9kts
09-Oct-17 07:29 33.824595 -116.499666 235 426ft 0kts
09-Oct-17 07:30 33.828841 -116.504077 322 489ft 83kts
09-Oct-17 07:31 33.850704 -116.525690 321 2059ft 111kts
09-Oct-17 07:32 33.874610 -116.549198 321 3700ft 114kts
09-Oct-17 07:33 33.899045 -116.573252 321 5373ft 117kts
09-Oct-17 07:34 33.925050 -116.574010 71 6791ft 136kts
09-Oct-17 07:35 33.911979 -116.529864 87 8101ft 143kts
09-Oct-17 07:36 33.935800 -116.525962 296 9328ft 125kts
09-Oct-17 07:37 33.938594 -116.570449 280 9991ft 151kts
09-Oct-17 07:38 33.941951 -116.626295 279 9985ft 180kts
09-Oct-17 07:39 33.945754 -116.687553 277 9984ft 189kts
09-Oct-17 07:40 33.947948 -116.750751 271 9982ft 192kts
09-Oct-17 07:41 33.946022 -116.815348 270 9998ft 194kts
09-Oct-17 07:42 33.943892 -116.880004 270 10114ft 197kts
09-Oct-17 07:43 33.941737 -116.947109 268 10194ft 202kts
09-Oct-17 07:44 33.939305 -117.015719 267 10193ft 207kts
09-Oct-17 07:45 33.936754 -117.084678 268 10052ft 207kts
09-Oct-17 07:46 33.933834 -117.153222 272 9984ft 202kts
09-Oct-17 07:47 33.931255 -117.219636 272 9547ft 201kts
09-Oct-17 07:48 33.928834 -117.287505 266 8549ft 207kts
09-Oct-17 07:49 33.925590 -117.358108 267 7985ft 211kts
09-Oct-17 07:50 33.922377 -117.426981 270 7962ft 206kts
09-Oct-17 07:51 33.919533 -117.496447 271 7957ft 209kts
09-Oct-17 07:52 33.918792 -117.566390 276 7957ft 210kts
09-Oct-17 07:53 33.920502 -117.635727 274 7375ft 204kts
09-Oct-17 07:54 33.921923 -117.702203 271 6381ft 202kts
09-Oct-17 07:55 33.919328 -117.768043 231 6002ft 202kts
09-Oct-17 07:56 33.867861 -117.779095 178 6004ft 195kts
09-Oct-17 07:57 33.839836 -117.831660 252 6025ft 206kts
09-Oct-17 07:58 33.823527 -117.896598 253 6030ft 203kts
09-Oct-17 07:59 33.807698 -117.959138 254 6030ft 201kts
09-Oct-17 08:00 33.792742 -118.018084 252 5998ft 202kts
09-Oct-17 08:01 33.761882 -118.071018 218 5977ft 201kts
09-Oct-17 08:02 33.718096 -118.112431 219 5172ft 200kts
09-Oct-17 08:03 33.675395 -118.154019 219 4224ft 198kts
09-Oct-17 08:04 33.631159 -118.171743 184 3713ft 187kts
09-Oct-17 08:05 33.628041 -118.220162 282 2578ft 192kts
09-Oct-17 08:06 33.593766 -118.262837 213 2584ft 202kts
09-Oct-17 08:07 33.546170 -118.301044 213 2557ft 205kts
09-Oct-17 08:08 33.499170 -118.339131 214 2559ft 205kts
09-Oct-17 08:09 33.456133 -118.370191 199 2400ft 140kts
09-Oct-17 08:10 33.427391 -118.379798 205 2080ft 84kts
09-Oct-17 08:11 33.414199 -118.399998 233 1765ft 76kts
09-Oct-17 08:12 33.404766 -118.415063 162 1552ft 14kts
09-Oct-17 08:13 33.403730 -118.414831 145 1552ft 0kts
09-Oct-17 08:14 33.403730 -118.414831 145 1552ft 0kts
09-Oct-17 08:15 33.403730 -118.414831 145 1552ft 0kts

Navigation Log

Ident Type
Flight plan parsing failed, navigation log unavailable